< Typhoon 200512 2005 Season Typhoon 200514 >
Typhoon 200513 (TALIM)
General InformationTrack Information on Google MapsDetailed Wind InformationAccess Analytics MapList of All Images || NewsDisaster Info.WeblogTrackbackTyphoon FrontResourceGoogle EarthGE AnimationAtom FeedGeoJSON
Detalied Best Track (Time Zone = UTC)
Year Month Day Hour Lat. Long. Pressure (hPa) Wind (kt) Class Image Chart
2005 8 25 18 12.5 144.6 1004 0 2 Image Chart
2005 8 26 00 12.6 144.0 1004 0 2 Image Chart
2005 8 26 06 12.7 143.5 1002 0 2 Image Chart
2005 8 26 12 12.8 143.0 1002 0 2 Image Chart
2005 8 26 18 13.2 142.6 998 0 2 Image Chart
2005 8 27 00 14.1 142.3 996 35 3 Image Chart
2005 8 27 06 15.7 141.7 996 35 3 Image Chart
2005 8 27 12 16.7 141.2 992 40 3 Image Chart
2005 8 27 18 17.5 139.9 990 45 3 Image Chart
2005 8 28 00 18.3 138.8 985 50 4 Image Chart
2005 8 28 06 19.5 137.8 975 65 5 Image Chart
2005 8 28 12 19.9 136.8 970 65 5 Image Chart
2005 8 28 18 20.6 135.6 965 70 5 Image Chart
2005 8 29 00 20.9 134.1 965 70 5 Image Chart
2005 8 29 06 21.0 132.9 955 75 5 Image Chart
2005 8 29 12 20.9 131.8 935 90 5 Image Chart
2005 8 29 18 21.2 130.6 925 95 5 Image Chart
2005 8 30 00 21.4 129.7 925 95 5 Image Chart
2005 8 30 06 21.7 128.5 925 95 5 Image Chart
2005 8 30 12 22.0 127.3 925 95 5 Image Chart
2005 8 30 15 22.1 126.8 925 95 5 Image Chart
2005 8 30 18 22.2 126.4 940 85 5 Image Chart
2005 8 30 21 22.6 125.7 945 85 5 Image Chart
2005 8 31 00 22.7 125.2 945 85 5 Image Chart
2005 8 31 03 22.9 124.7 945 85 5 Image Chart
2005 8 31 06 23.4 124.0 945 85 5 Image Chart
2005 8 31 09 23.5 123.5 940 85 5 Image Chart
2005 8 31 12 23.8 122.8 935 90 5 Image Chart
2005 8 31 15 24.0 122.1 940 85 5 Image Chart
2005 8 31 18 23.8 121.4 950 80 5 Image Chart
2005 8 31 21 23.6 120.9 950 80 5 Image Chart
2005 9 1 00 24.2 120.3 960 75 5 Image Chart
2005 9 1 03 25.0 119.7 970 70 5 Image Chart
2005 9 1 06 25.4 119.5 980 60 4 Image Chart
2005 9 1 12 25.6 118.2 985 50 4 Image Chart
2005 9 1 18 25.9 116.9 992 45 3 Image Chart
2005 9 2 00 26.6 115.5 996 40 3 Image Chart
2005 9 2 06 27.5 114.8 1000 0 2 Image Chart
2005 9 2 12 28.0 114.5 1002 0 2 Image Chart
2005 9 2 18 28.5 114.4 1002 0 2 Image Chart
Japan Meteorological Agency Best Track Data | Correction Date : 2005-12-19
< Typhoon 200512 2005 Season Typhoon 200514 >

Help